sensor_id;sensor_type;location;lat;lon;timestamp;pressure;altitude;pressure_sealevel;temperature;humidity
77090;BME280;66028;53.558;9.950;2022-12-29T12:02:35;99642.16;;;11.35;63.27
77090;BME280;66028;53.558;9.950;2022-12-29T12:05:30;99628.88;;;10.83;65.73
77090;BME280;66028;53.558;9.950;2022-12-29T12:08:23;99632.59;;;10.46;67.01
77090;BME280;66028;53.558;9.950;2022-12-29T12:11:16;99642.34;;;10.37;68.15
77090;BME280;66028;53.558;9.950;2022-12-29T12:17:10;99652.22;;;10.17;68.58
77090;BME280;66028;53.558;9.950;2022-12-29T12:20:02;99658.16;;;10.14;69.14
77090;BME280;66028;53.558;9.950;2022-12-29T12:26:19;99641.91;;;10.08;70.54
77090;BME280;66028;53.558;9.950;2022-12-29T12:29:20;99647.31;;;10.08;70.73
77090;BME280;66028;53.558;9.950;2022-12-29T12:32:19;99639.16;;;10.03;69.91
77090;BME280;66028;53.558;9.950;2022-12-29T12:35:14;99635.13;;;10.01;70.59
77090;BME280;66028;53.558;9.950;2022-12-29T12:38:10;99636.94;;;9.85;72.47
77090;BME280;66028;53.558;9.950;2022-12-29T12:41:25;99647.16;;;9.78;72.59
77090;BME280;66028;53.558;9.950;2022-12-29T12:44:24;99641.22;;;9.76;72.35
77090;BME280;66028;53.558;9.950;2022-12-29T12:50:46;99632.06;;;9.87;71.30
77090;BME280;66028;53.558;9.950;2022-12-29T12:59:53;99644.75;;;9.82;71.67
77090;BME280;66028;53.558;9.950;2022-12-29T13:06:15;99654.25;;;9.89;70.38
77090;BME280;66028;53.558;9.950;2022-12-29T13:09:17;99645.13;;;10.00;69.60
77090;BME280;66028;53.558;9.950;2022-12-29T13:12:32;99656.22;;;10.04;69.50
77090;BME280;66028;53.558;9.950;2022-12-29T13:15:44;99662.69;;;10.03;69.29
77090;BME280;66028;53.558;9.950;2022-12-29T13:18:49;99674.53;;;9.87;70.80
77090;BME280;66028;53.558;9.950;2022-12-29T13:22:08;99668.88;;;9.51;75.04
77090;BME280;66028;53.558;9.950;2022-12-29T13:25:21;99670.59;;;9.30;76.57
77090;BME280;66028;53.558;9.950;2022-12-29T13:28:31;99680.50;;;9.20;77.76
77090;BME280;66028;53.558;9.950;2022-12-29T13:37:26;99694.16;;;9.03;78.40
77090;BME280;66028;53.558;9.950;2022-12-29T13:40:17;99698.38;;;8.94;80.01
77090;BME280;66028;53.558;9.950;2022-12-29T13:43:04;99703.22;;;8.92;79.48
77090;BME280;66028;53.558;9.950;2022-12-29T13:45:58;99721.25;;;8.86;79.63
77090;BME280;66028;53.558;9.950;2022-12-29T13:48:49;99730.41;;;8.85;80.59
77090;BME280;66028;53.558;9.950;2022-12-29T13:52:27;99723.91;;;8.81;80.69
77090;BME280;66028;53.558;9.950;2022-12-29T13:55:20;99733.88;;;8.81;80.62
77090;BME280;66028;53.558;9.950;2022-12-29T13:58:20;99724.28;;;8.95;78.83
77090;BME280;66028;53.558;9.950;2022-12-29T14:01:30;99744.31;;;8.99;78.16
77090;BME280;66028;53.558;9.950;2022-12-29T14:04:24;99769.44;;;8.99;78.90
77090;BME280;66028;53.558;9.950;2022-12-29T14:07:15;99802.03;;;8.93;80.16
77090;BME280;66028;53.558;9.950;2022-12-29T14:10:03;99799.81;;;8.46;81.49
77090;BME280;66028;53.558;9.950;2022-12-29T14:12:48;99798.16;;;7.90;84.07
77090;BME280;66028;53.558;9.950;2022-12-29T14:15:38;99826.00;;;7.45;81.87
77090;BME280;66028;53.558;9.950;2022-12-29T14:18:26;99806.69;;;7.37;81.74
77090;BME280;66028;53.558;9.950;2022-12-29T14:30:46;99817.28;;;7.27;83.53
77090;BME280;66028;53.558;9.950;2022-12-29T14:33:34;99825.59;;;7.25;84.09
77090;BME280;66028;53.558;9.950;2022-12-29T14:36:22;99825.72;;;7.30;84.23
77090;BME280;66028;53.558;9.950;2022-12-29T14:39:42;99832.97;;;7.30;84.49
77090;BME280;66028;53.558;9.950;2022-12-29T14:42:29;99850.19;;;7.29;85.09
77090;BME280;66028;53.558;9.950;2022-12-29T14:48:00;99847.44;;;7.40;84.71
77090;BME280;66028;53.558;9.950;2022-12-29T14:50:46;99858.44;;;7.39;85.05
77090;BME280;66028;53.558;9.950;2022-12-29T14:53:50;99855.97;;;7.37;85.10
77090;BME280;66028;53.558;9.950;2022-12-29T14:56:37;99856.50;;;7.34;85.13
77090;BME280;66028;53.558;9.950;2022-12-29T14:59:24;99866.75;;;7.37;85.09
77090;BME280;66028;53.558;9.950;2022-12-29T15:02:20;99859.75;;;7.36;85.54
77090;BME280;66028;53.558;9.950;2022-12-29T15:05:27;99867.50;;;7.33;85.69
77090;BME280;66028;53.558;9.950;2022-12-29T15:08:18;99868.31;;;7.33;85.33
77090;BME280;66028;53.558;9.950;2022-12-29T15:11:12;99884.00;;;7.24;85.86
77090;BME280;66028;53.558;9.950;2022-12-29T15:13:58;99881.09;;;7.26;85.92
77090;BME280;66028;53.558;9.950;2022-12-29T15:16:44;99885.66;;;7.26;85.87
77090;BME280;66028;53.558;9.950;2022-12-29T15:19:29;99880.66;;;7.17;86.82
77090;BME280;66028;53.558;9.950;2022-12-29T15:22:15;99884.88;;;7.13;86.68
77090;BME280;66028;53.558;9.950;2022-12-29T15:25:02;99884.44;;;7.05;86.87
77090;BME280;66028;53.558;9.950;2022-12-29T15:27:50;99898.84;;;7.10;87.04
77090;BME280;66028;53.558;9.950;2022-12-29T15:30:51;99909.25;;;7.07;86.62
77090;BME280;66028;53.558;9.950;2022-12-29T15:33:39;99921.88;;;7.06;87.13
77090;BME280;66028;53.558;9.950;2022-12-29T15:36:27;99928.22;;;7.00;87.01
77090;BME280;66028;53.558;9.950;2022-12-29T15:39:23;99932.22;;;6.98;87.74
77090;BME280;66028;53.558;9.950;2022-12-29T15:42:27;99943.06;;;7.03;87.57
77090;BME280;66028;53.558;9.950;2022-12-29T15:45:16;99940.38;;;7.03;87.67
77090;BME280;66028;53.558;9.950;2022-12-29T15:48:03;99948.22;;;7.04;87.69
77090;BME280;66028;53.558;9.950;2022-12-29T15:50:50;99954.78;;;7.08;87.19
77090;BME280;66028;53.558;9.950;2022-12-29T15:53:36;99948.78;;;7.06;87.64
77090;BME280;66028;53.558;9.950;2022-12-29T15:56:21;99951.34;;;7.13;86.35
77090;BME280;66028;53.558;9.950;2022-12-29T16:02:11;99954.56;;;6.98;86.99
77090;BME280;66028;53.558;9.950;2022-12-29T16:04:57;99953.63;;;6.93;86.88
77090;BME280;66028;53.558;9.950;2022-12-29T16:07:57;99963.06;;;7.07;86.01
77090;BME280;66028;53.558;9.950;2022-12-29T16:10:43;99971.16;;;6.95;86.65
77090;BME280;66028;53.558;9.950;2022-12-29T16:13:32;99975.50;;;6.96;85.92
77090;BME280;66028;53.558;9.950;2022-12-29T16:16:26;99980.16;;;7.12;85.17
77090;BME280;66028;53.558;9.950;2022-12-29T16:19:35;99984.38;;;7.08;85.44
77090;BME280;66028;53.558;9.950;2022-12-29T16:22:27;99988.81;;;7.03;85.36
77090;BME280;66028;53.558;9.950;2022-12-29T16:25:34;99985.81;;;6.99;86.29
77090;BME280;66028;53.558;9.950;2022-12-29T16:28:41;99983.41;;;7.14;84.16
77090;BME280;66028;53.558;9.950;2022-12-29T16:31:51;99985.44;;;7.07;85.60
77090;BME280;66028;53.558;9.950;2022-12-29T16:37:33;99994.28;;;7.31;84.48
77090;BME280;66028;53.558;9.950;2022-12-29T16:43:20;99980.38;;;7.22;84.52
77090;BME280;66028;53.558;9.950;2022-12-29T16:46:16;99986.81;;;7.21;84.37
77090;BME280;66028;53.558;9.950;2022-12-29T16:49:03;99994.31;;;7.19;84.41
77090;BME280;66028;53.558;9.950;2022-12-29T16:51:48;99994.41;;;7.24;84.65
77090;BME280;66028;53.558;9.950;2022-12-29T16:54:36;99991.69;;;7.48;84.77
77090;BME280;66028;53.558;9.950;2022-12-29T16:57:24;100003.63;;;7.40;83.76
77090;BME280;66028;53.558;9.950;2022-12-29T17:03:05;100000.22;;;7.45;83.19
77090;BME280;66028;53.558;9.950;2022-12-29T17:05:51;100007.72;;;7.43;83.19
77090;BME280;66028;53.558;9.950;2022-12-29T17:08:41;100022.09;;;7.60;82.63
77090;BME280;66028;53.558;9.950;2022-12-29T17:11:33;100006.41;;;7.57;81.98
77090;BME280;66028;53.558;9.950;2022-12-29T17:14:44;100013.13;;;7.43;82.37
77090;BME280;66028;53.558;9.950;2022-12-29T17:17:41;100018.13;;;7.51;82.29
77090;BME280;66028;53.558;9.950;2022-12-29T17:20:29;100015.09;;;7.47;82.16
77090;BME280;66028;53.558;9.950;2022-12-29T17:23:15;100014.84;;;7.49;82.43
77090;BME280;66028;53.558;9.950;2022-12-29T17:26:01;100018.94;;;7.51;81.72
77090;BME280;66028;53.558;9.950;2022-12-29T17:28:47;100021.16;;;7.54;81.62
77090;BME280;66028;53.558;9.950;2022-12-29T17:31:32;100023.41;;;7.46;82.30
77090;BME280;66028;53.558;9.950;2022-12-29T17:34:18;100025.72;;;7.54;82.05
77090;BME280;66028;53.558;9.950;2022-12-29T17:37:26;100038.47;;;7.70;81.17
77090;BME280;66028;53.558;9.950;2022-12-29T17:40:14;100024.59;;;7.78;80.43
77090;BME280;66028;53.558;9.950;2022-12-29T17:43:00;100023.66;;;7.84;80.43
77090;BME280;66028;53.558;9.950;2022-12-29T17:45:49;100021.69;;;7.80;80.73
77090;BME280;66028;53.558;9.950;2022-12-29T17:48:37;100021.28;;;7.88;80.49
77090;BME280;66028;53.558;9.950;2022-12-29T17:51:22;100027.84;;;7.92;79.98
77090;BME280;66028;53.558;9.950;2022-12-29T17:54:22;100028.66;;;7.92;79.98
77090;BME280;66028;53.558;9.950;2022-12-29T17:57:14;100034.53;;;7.89;80.79
77090;BME280;66028;53.558;9.950;2022-12-29T18:00:01;100027.84;;;7.92;80.42
77090;BME280;66028;53.558;9.950;2022-12-29T18:02:47;100037.19;;;8.01;79.85
77090;BME280;66028;53.558;9.950;2022-12-29T18:05:33;100029.44;;;8.05;79.19
77090;BME280;66028;53.558;9.950;2022-12-29T18:08:19;100041.16;;;7.99;80.00
77090;BME280;66028;53.558;9.950;2022-12-29T18:11:23;100033.44;;;8.02;78.74
77090;BME280;66028;53.558;9.950;2022-12-29T18:14:16;100034.25;;;8.03;78.46
77090;BME280;66028;53.558;9.950;2022-12-29T18:17:10;100041.41;;;7.97;79.06
77090;BME280;66028;53.558;9.950;2022-12-29T18:19:56;100046.47;;;7.93;79.63
77090;BME280;66028;53.558;9.950;2022-12-29T18:22:42;100056.91;;;7.90;79.50
77090;BME280;66028;53.558;9.950;2022-12-29T18:25:41;100052.34;;;7.90;80.30
77090;BME280;66028;53.558;9.950;2022-12-29T18:28:28;100057.16;;;7.88;80.39
77090;BME280;66028;53.558;9.950;2022-12-29T18:31:23;100057.78;;;7.79;81.15
77090;BME280;66028;53.558;9.950;2022-12-29T18:34:13;100060.22;;;7.80;80.90
77090;BME280;66028;53.558;9.950;2022-12-29T18:36:58;100054.41;;;7.72;81.17
77090;BME280;66028;53.558;9.950;2022-12-29T18:39:46;100056.28;;;7.71;81.45
77090;BME280;66028;53.558;9.950;2022-12-29T18:42:31;100061.16;;;7.74;80.61
77090;BME280;66028;53.558;9.950;2022-12-29T18:45:19;100053.34;;;7.73;80.80
77090;BME280;66028;53.558;9.950;2022-12-29T18:48:05;100048.44;;;7.70;81.67
77090;BME280;66028;53.558;9.950;2022-12-29T18:50:51;100051.22;;;7.75;81.35
77090;BME280;66028;53.558;9.950;2022-12-29T18:53:37;100040.78;;;7.78;81.31
77090;BME280;66028;53.558;9.950;2022-12-29T18:56:23;100039.72;;;7.79;81.37
77090;BME280;66028;53.558;9.950;2022-12-29T18:59:08;100042.41;;;7.79;81.19
77090;BME280;66028;53.558;9.950;2022-12-29T19:01:54;100039.13;;;7.77;81.09
77090;BME280;66028;53.558;9.950;2022-12-29T19:04:39;100033.47;;;7.90;80.39
77090;BME280;66028;53.558;9.950;2022-12-29T19:07:25;100030.81;;;7.79;81.04
77090;BME280;66028;53.558;9.950;2022-12-29T19:10:11;100031.41;;;7.81;80.88
77090;BME280;66028;53.558;9.950;2022-12-29T19:12:57;100019.53;;;7.93;80.71
77090;BME280;66028;53.558;9.950;2022-12-29T19:15:43;100011.50;;;7.99;80.23
77090;BME280;66028;53.558;9.950;2022-12-29T19:18:30;100015.84;;;8.00;80.06
77090;BME280;66028;53.558;9.950;2022-12-29T19:21:17;100022.06;;;8.00;80.63
77090;BME280;66028;53.558;9.950;2022-12-29T19:24:04;100020.53;;;8.04;80.16
77090;BME280;66028;53.558;9.950;2022-12-29T19:26:50;100017.00;;;8.04;80.85
77090;BME280;66028;53.558;9.950;2022-12-29T19:29:35;100011.44;;;7.93;80.91
77090;BME280;66028;53.558;9.950;2022-12-29T19:32:21;100015.47;;;7.79;82.82
77090;BME280;66028;53.558;9.950;2022-12-29T19:35:08;100018.56;;;7.71;83.35
77090;BME280;66028;53.558;9.950;2022-12-29T19:37:54;100020.03;;;7.79;82.21
77090;BME280;66028;53.558;9.950;2022-12-29T19:40:46;100021.09;;;7.78;82.31
77090;BME280;66028;53.558;9.950;2022-12-29T19:43:32;100022.84;;;7.84;81.78
77090;BME280;66028;53.558;9.950;2022-12-29T19:46:19;100021.91;;;7.78;82.19
77090;BME280;66028;53.558;9.950;2022-12-29T19:49:05;100015.59;;;7.84;81.07
77090;BME280;66028;53.558;9.950;2022-12-29T19:51:50;100015.81;;;7.83;81.69
77090;BME280;66028;53.558;9.950;2022-12-29T19:54:37;100015.72;;;7.78;83.05
77090;BME280;66028;53.558;9.950;2022-12-29T19:57:23;100031.41;;;7.81;82.39
77090;BME280;66028;53.558;9.950;2022-12-29T20:00:09;100046.88;;;7.74;83.00
77090;BME280;66028;53.558;9.950;2022-12-29T20:02:55;100068.25;;;7.52;84.42
77090;BME280;66028;53.558;9.950;2022-12-29T20:05:47;100085.97;;;7.36;86.32
77090;BME280;66028;53.558;9.950;2022-12-29T20:08:32;100068.75;;;7.26;86.60
77090;BME280;66028;53.558;9.950;2022-12-29T20:11:18;100088.63;;;7.24;86.14
77090;BME280;66028;53.558;9.950;2022-12-29T20:14:04;100099.75;;;7.16;86.59
77090;BME280;66028;53.558;9.950;2022-12-29T20:16:50;100090.41;;;7.07;85.78
77090;BME280;66028;53.558;9.950;2022-12-29T20:19:36;100091.44;;;6.95;84.66
77090;BME280;66028;53.558;9.950;2022-12-29T20:22:22;100104.28;;;6.81;85.31
77090;BME280;66028;53.558;9.950;2022-12-29T20:25:08;100108.38;;;6.72;85.12
77090;BME280;66028;53.558;9.950;2022-12-29T20:27:53;100094.19;;;6.65;85.30
77090;BME280;66028;53.558;9.950;2022-12-29T20:30:39;100096.63;;;6.55;85.52
77090;BME280;66028;53.558;9.950;2022-12-29T20:33:25;100103.28;;;6.52;85.58
77090;BME280;66028;53.558;9.950;2022-12-29T20:36:14;100106.69;;;6.47;85.69
77090;BME280;66028;53.558;9.950;2022-12-29T20:39:03;100121.28;;;6.40;87.07
77090;BME280;66028;53.558;9.950;2022-12-29T20:41:50;100118.66;;;6.33;86.69
77090;BME280;66028;53.558;9.950;2022-12-29T20:44:36;100114.78;;;6.29;86.78
77090;BME280;66028;53.558;9.950;2022-12-29T20:47:22;100107.41;;;6.25;87.21
77090;BME280;66028;53.558;9.950;2022-12-29T20:50:07;100127.28;;;6.24;87.48
77090;BME280;66028;53.558;9.950;2022-12-29T20:52:53;100127.06;;;6.25;87.15
77090;BME280;66028;53.558;9.950;2022-12-29T20:55:38;100124.91;;;6.16;87.26
77090;BME280;66028;53.558;9.950;2022-12-29T20:58:24;100122.22;;;6.16;87.26
77090;BME280;66028;53.558;9.950;2022-12-29T21:01:12;100121.16;;;6.17;87.50
77090;BME280;66028;53.558;9.950;2022-12-29T21:03:58;100111.09;;;6.12;87.40
77090;BME280;66028;53.558;9.950;2022-12-29T21:06:44;100129.91;;;6.12;87.55
77090;BME280;66028;53.558;9.950;2022-12-29T21:09:29;100138.56;;;6.14;87.44
77090;BME280;66028;53.558;9.950;2022-12-29T21:12:15;100140.22;;;6.15;87.65
77090;BME280;66028;53.558;9.950;2022-12-29T21:15:01;100163.88;;;6.25;85.97
77090;BME280;66028;53.558;9.950;2022-12-29T21:17:46;100162.22;;;6.24;85.71
77090;BME280;66028;53.558;9.950;2022-12-29T21:20:32;100161.78;;;6.27;85.40
77090;BME280;66028;53.558;9.950;2022-12-29T21:23:17;100174.84;;;6.23;86.42
77090;BME280;66028;53.558;9.950;2022-12-29T21:26:13;100167.22;;;6.20;85.93
77090;BME280;66028;53.558;9.950;2022-12-29T21:29:00;100172.28;;;6.28;84.50
77090;BME280;66028;53.558;9.950;2022-12-29T21:31:45;100170.28;;;6.24;85.32
77090;BME280;66028;53.558;9.950;2022-12-29T21:34:33;100164.91;;;6.24;84.56
77090;BME280;66028;53.558;9.950;2022-12-29T21:37:18;100162.00;;;6.25;84.19
77090;BME280;66028;53.558;9.950;2022-12-29T21:40:04;100168.84;;;6.21;84.36
77090;BME280;66028;53.558;9.950;2022-12-29T21:42:50;100159.38;;;6.19;85.33
77090;BME280;66028;53.558;9.950;2022-12-29T21:45:36;100162.66;;;6.21;84.98
77090;BME280;66028;53.558;9.950;2022-12-29T21:48:21;100169.41;;;6.11;86.52
77090;BME280;66028;53.558;9.950;2022-12-29T21:51:12;100169.84;;;6.08;86.71
77090;BME280;66028;53.558;9.950;2022-12-29T21:54:22;100168.34;;;6.12;86.46
77090;BME280;66028;53.558;9.950;2022-12-29T21:57:26;100175.66;;;6.05;86.53
77090;BME280;66028;53.558;9.950;2022-12-29T22:00:30;100169.38;;;5.93;87.41
77090;BME280;66028;53.558;9.950;2022-12-29T22:03:37;100180.91;;;6.00;86.44
77090;BME280;66028;53.558;9.950;2022-12-29T22:06:41;100184.25;;;5.96;85.83
77090;BME280;66028;53.558;9.950;2022-12-29T22:09:45;100182.88;;;5.87;86.03
77090;BME280;66028;53.558;9.950;2022-12-29T22:12:50;100183.50;;;5.89;85.67
77090;BME280;66028;53.558;9.950;2022-12-29T22:15:45;100182.38;;;5.78;85.96
77090;BME280;66028;53.558;9.950;2022-12-29T22:18:31;100189.72;;;5.89;84.65
77090;BME280;66028;53.558;9.950;2022-12-29T22:21:16;100192.59;;;5.88;84.15
77090;BME280;66028;53.558;9.950;2022-12-29T22:24:02;100195.72;;;5.85;83.96
77090;BME280;66028;53.558;9.950;2022-12-29T22:26:48;100185.41;;;5.82;84.36
77090;BME280;66028;53.558;9.950;2022-12-29T22:29:34;100187.50;;;5.79;83.95
77090;BME280;66028;53.558;9.950;2022-12-29T22:32:19;100195.25;;;5.69;84.71
77090;BME280;66028;53.558;9.950;2022-12-29T22:35:05;100193.94;;;5.78;84.09
77090;BME280;66028;53.558;9.950;2022-12-29T22:37:51;100193.16;;;5.71;84.56
77090;BME280;66028;53.558;9.950;2022-12-29T22:40:37;100193.16;;;5.71;85.27
77090;BME280;66028;53.558;9.950;2022-12-29T22:43:23;100204.28;;;5.75;84.90
77090;BME280;66028;53.558;9.950;2022-12-29T22:46:08;100197.88;;;5.76;84.39
77090;BME280;66028;53.558;9.950;2022-12-29T22:48:55;100210.78;;;5.86;84.45
77090;BME280;66028;53.558;9.950;2022-12-29T22:51:41;100214.50;;;5.85;84.84
77090;BME280;66028;53.558;9.950;2022-12-29T22:54:27;100210.41;;;5.82;85.15
77090;BME280;66028;53.558;9.950;2022-12-29T22:57:12;100222.34;;;5.86;85.18
77090;BME280;66028;53.558;9.950;2022-12-29T22:59:58;100222.03;;;6.01;84.42
77090;BME280;66028;53.558;9.950;2022-12-29T23:02:43;100230.16;;;5.94;85.18
77090;BME280;66028;53.558;9.950;2022-12-29T23:05:29;100234.13;;;6.10;84.58
77090;BME280;66028;53.558;9.950;2022-12-29T23:08:15;100223.47;;;6.03;84.23
77090;BME280;66028;53.558;9.950;2022-12-29T23:11:01;100232.56;;;6.02;84.27
77090;BME280;66028;53.558;9.950;2022-12-29T23:13:47;100241.28;;;5.98;83.85
77090;BME280;66028;53.558;9.950;2022-12-29T23:16:33;100241.19;;;6.59;86.67
77090;BME280;66028;53.558;9.950;2022-12-29T23:19:18;100243.75;;;6.84;81.77
77090;BME280;66028;53.558;9.950;2022-12-29T23:22:04;100250.63;;;6.50;81.88
77090;BME280;66028;53.558;9.950;2022-12-29T23:24:49;100249.34;;;6.16;83.79
77090;BME280;66028;53.558;9.950;2022-12-29T23:27:35;100242.91;;;6.17;83.90
77090;BME280;66028;53.558;9.950;2022-12-29T23:30:21;100256.84;;;6.14;84.26
77090;BME280;66028;53.558;9.950;2022-12-29T23:33:06;100265.94;;;6.13;84.41
77090;BME280;66028;53.558;9.950;2022-12-29T23:35:52;100273.31;;;6.18;84.55
77090;BME280;66028;53.558;9.950;2022-12-29T23:38:37;100262.13;;;6.21;84.34
77090;BME280;66028;53.558;9.950;2022-12-29T23:41:24;100272.81;;;6.27;84.16
77090;BME280;66028;53.558;9.950;2022-12-29T23:44:09;100277.28;;;6.33;83.47
77090;BME280;66028;53.558;9.950;2022-12-29T23:46:55;100281.84;;;6.33;83.45
77090;BME280;66028;53.558;9.950;2022-12-29T23:49:41;100285.50;;;6.38;83.33
77090;BME280;66028;53.558;9.950;2022-12-29T23:52:26;100287.22;;;6.33;83.69
77090;BME280;66028;53.558;9.950;2022-12-29T23:55:12;100297.09;;;6.39;83.55
77090;BME280;66028;53.558;9.950;2022-12-29T23:57:57;100305.06;;;6.45;82.83
